sensor_id;sensor_type;location;lat;lon;timestamp;pressure;altitude;pressure_sealevel;temperature;humidity
76404;BME280;65232;48.358;2.122;2022-12-18T00:00:14;101691.38;;;-3.50;82.81
76404;BME280;65232;48.358;2.122;2022-12-18T00:00:43;101689.75;;;-3.59;82.96
76404;BME280;65232;48.358;2.122;2022-12-18T00:01:19;101681.00;;;-3.57;83.13
76404;BME280;65232;48.358;2.122;2022-12-18T00:01:45;101684.41;;;-3.51;83.05
76404;BME280;65232;48.358;2.122;2022-12-18T00:02:10;101680.00;;;-3.45;83.08
76404;BME280;65232;48.358;2.122;2022-12-18T00:02:36;101676.44;;;-3.41;83.07
76404;BME280;65232;48.358;2.122;2022-12-18T00:03:01;101683.47;;;-3.41;83.01
76404;BME280;65232;48.358;2.122;2022-12-18T00:03:27;101688.72;;;-3.44;82.85
76404;BME280;65232;48.358;2.122;2022-12-18T00:03:54;101679.03;;;-3.38;82.75
76404;BME280;65232;48.358;2.122;2022-12-18T00:04:23;101672.84;;;-3.29;82.52
76404;BME280;65232;48.358;2.122;2022-12-18T00:04:49;101680.78;;;-3.38;82.73
76404;BME280;65232;48.358;2.122;2022-12-18T00:05:15;101673.03;;;-3.44;82.53
76404;BME280;65232;48.358;2.122;2022-12-18T00:05:50;101677.38;;;-3.43;82.51
76404;BME280;65232;48.358;2.122;2022-12-18T00:06:17;101673.88;;;-3.42;82.81
76404;BME280;65232;48.358;2.122;2022-12-18T00:06:42;101678.31;;;-3.50;82.67
76404;BME280;65232;48.358;2.122;2022-12-18T00:07:08;101670.34;;;-3.40;82.69
76404;BME280;65232;48.358;2.122;2022-12-18T00:07:33;101680.84;;;-3.43;82.51
76404;BME280;65232;48.358;2.122;2022-12-18T00:07:58;101677.53;;;-3.59;82.66
76404;BME280;65232;48.358;2.122;2022-12-18T00:08:24;101682.69;;;-3.54;82.97
76404;BME280;65232;48.358;2.122;2022-12-18T00:08:49;101677.47;;;-3.56;83.15
76404;BME280;65232;48.358;2.122;2022-12-18T00:09:16;101677.56;;;-3.60;83.28
76404;BME280;65232;48.358;2.122;2022-12-18T00:09:41;101681.91;;;-3.59;83.36
76404;BME280;65232;48.358;2.122;2022-12-18T00:10:07;101679.31;;;-3.62;83.22
76404;BME280;65232;48.358;2.122;2022-12-18T00:10:33;101685.31;;;-3.52;83.13
76404;BME280;65232;48.358;2.122;2022-12-18T00:11:10;101680.16;;;-3.57;83.08
76404;BME280;65232;48.358;2.122;2022-12-18T00:11:36;101677.59;;;-3.65;83.25
76404;BME280;65232;48.358;2.122;2022-12-18T00:12:01;101679.28;;;-3.59;83.01
76404;BME280;65232;48.358;2.122;2022-12-18T00:12:27;101680.19;;;-3.62;83.26
76404;BME280;65232;48.358;2.122;2022-12-18T00:12:52;101677.56;;;-3.62;83.34
76404;BME280;65232;48.358;2.122;2022-12-18T00:13:18;101678.47;;;-3.66;83.16
76404;BME280;65232;48.358;2.122;2022-12-18T00:13:44;101678.50;;;-3.70;83.43
76404;BME280;65232;48.358;2.122;2022-12-18T00:14:13;101674.19;;;-3.73;83.72
76404;BME280;65232;48.358;2.122;2022-12-18T00:14:38;101678.50;;;-3.70;83.67
76404;BME280;65232;48.358;2.122;2022-12-18T00:15:04;101677.63;;;-3.68;83.58
76404;BME280;65232;48.358;2.122;2022-12-18T00:15:30;101676.69;;;-3.59;83.29
76404;BME280;65232;48.358;2.122;2022-12-18T00:15:55;101683.53;;;-3.50;83.32
76404;BME280;65232;48.358;2.122;2022-12-18T00:16:23;101684.53;;;-3.59;83.17
76404;BME280;65232;48.358;2.122;2022-12-18T00:16:48;101674.97;;;-3.65;83.28
76404;BME280;65232;48.358;2.122;2022-12-18T00:17:14;101677.56;;;-3.60;83.02
76404;BME280;65232;48.358;2.122;2022-12-18T00:17:39;101679.28;;;-3.58;82.94
76404;BME280;65232;48.358;2.122;2022-12-18T00:18:05;101684.44;;;-3.53;82.92
76404;BME280;65232;48.358;2.122;2022-12-18T00:18:31;101677.44;;;-3.51;82.99
76404;BME280;65232;48.358;2.122;2022-12-18T00:18:59;101685.22;;;-3.42;82.83
76404;BME280;65232;48.358;2.122;2022-12-18T00:19:24;101685.22;;;-3.42;82.26
76404;BME280;65232;48.358;2.122;2022-12-18T00:19:50;101682.53;;;-3.40;82.27
76404;BME280;65232;48.358;2.122;2022-12-18T00:20:15;101686.91;;;-3.41;82.38
76404;BME280;65232;48.358;2.122;2022-12-18T00:20:45;101686.84;;;-3.35;82.06
76404;BME280;65232;48.358;2.122;2022-12-18T00:21:12;101693.81;;;-3.34;82.20
76404;BME280;65232;48.358;2.122;2022-12-18T00:21:38;101689.50;;;-3.39;81.91
76404;BME280;65232;48.358;2.122;2022-12-18T00:22:04;101685.25;;;-3.48;82.35
76404;BME280;65232;48.358;2.122;2022-12-18T00:22:31;101686.97;;;-3.42;82.41
76404;BME280;65232;48.358;2.122;2022-12-18T00:22:56;101686.28;;;-3.60;82.64
76404;BME280;65232;48.358;2.122;2022-12-18T00:23:22;101688.97;;;-3.69;82.85
76404;BME280;65232;48.358;2.122;2022-12-18T00:23:49;101695.03;;;-3.64;82.71
76404;BME280;65232;48.358;2.122;2022-12-18T00:24:15;101691.63;;;-3.73;82.91
76404;BME280;65232;48.358;2.122;2022-12-18T00:24:42;101683.84;;;-3.78;83.14
76404;BME280;65232;48.358;2.122;2022-12-18T00:25:07;101684.72;;;-3.79;83.22
76404;BME280;65232;48.358;2.122;2022-12-18T00:25:34;101691.69;;;-3.79;83.36
76404;BME280;65232;48.358;2.122;2022-12-18T00:26:01;101692.53;;;-3.77;83.81
76404;BME280;65232;48.358;2.122;2022-12-18T00:26:29;101689.16;;;-3.87;83.53
76404;BME280;65232;48.358;2.122;2022-12-18T00:26:57;101693.44;;;-3.81;83.80
76404;BME280;65232;48.358;2.122;2022-12-18T00:27:23;101694.28;;;-3.76;83.52
76404;BME280;65232;48.358;2.122;2022-12-18T00:27:48;101699.47;;;-3.73;83.64
76404;BME280;65232;48.358;2.122;2022-12-18T00:28:14;101696.81;;;-3.70;83.66
76404;BME280;65232;48.358;2.122;2022-12-18T00:28:39;101695.03;;;-3.64;83.63
76404;BME280;65232;48.358;2.122;2022-12-18T00:29:12;101697.59;;;-3.59;83.15
76404;BME280;65232;48.358;2.122;2022-12-18T00:29:40;101694.19;;;-3.67;83.35
76404;BME280;65232;48.358;2.122;2022-12-18T00:30:06;101700.22;;;-3.62;83.28
76404;BME280;65232;48.358;2.122;2022-12-18T00:30:31;101702.03;;;-3.69;83.18
76404;BME280;65232;48.358;2.122;2022-12-18T00:31:05;101700.28;;;-3.68;82.75
76404;BME280;65232;48.358;2.122;2022-12-18T00:31:31;101702.09;;;-3.75;83.12
76404;BME280;65232;48.358;2.122;2022-12-18T00:31:59;101701.13;;;-3.66;83.05
76404;BME280;65232;48.358;2.122;2022-12-18T00:32:25;101702.81;;;-3.59;82.83
76404;BME280;65232;48.358;2.122;2022-12-18T00:32:50;101701.06;;;-3.57;82.70
76404;BME280;65232;48.358;2.122;2022-12-18T00:33:16;101694.91;;;-3.53;82.47
76404;BME280;65232;48.358;2.122;2022-12-18T00:33:42;101699.25;;;-3.52;82.43
76404;BME280;65232;48.358;2.122;2022-12-18T00:34:12;101700.06;;;-3.47;82.35
76404;BME280;65232;48.358;2.122;2022-12-18T00:34:39;101701.81;;;-3.44;82.19
76404;BME280;65232;48.358;2.122;2022-12-18T00:35:05;101704.44;;;-3.46;82.46
76404;BME280;65232;48.358;2.122;2022-12-18T00:35:31;101700.13;;;-3.51;82.36
76404;BME280;65232;48.358;2.122;2022-12-18T00:36:10;101707.19;;;-3.58;82.18
76404;BME280;65232;48.358;2.122;2022-12-18T00:36:36;101694.84;;;-3.45;82.11
76404;BME280;65232;48.358;2.122;2022-12-18T00:37:02;101705.22;;;-3.41;81.92
76404;BME280;65232;48.358;2.122;2022-12-18T00:37:27;101702.81;;;-3.59;82.02
76404;BME280;65232;48.358;2.122;2022-12-18T00:37:53;101702.91;;;-3.68;82.55
76404;BME280;65232;48.358;2.122;2022-12-18T00:38:18;101697.72;;;-3.71;82.59
76404;BME280;65232;48.358;2.122;2022-12-18T00:38:44;101702.03;;;-3.67;82.80
76404;BME280;65232;48.358;2.122;2022-12-18T00:39:10;101699.34;;;-3.61;82.77
76404;BME280;65232;48.358;2.122;2022-12-18T00:39:36;101698.38;;;-3.51;82.33
76404;BME280;65232;48.358;2.122;2022-12-18T00:40:02;101702.72;;;-3.48;82.14
76404;BME280;65232;48.358;2.122;2022-12-18T00:40:28;101700.91;;;-3.43;82.01
76404;BME280;65232;48.358;2.122;2022-12-18T00:40:53;101698.19;;;-3.36;81.86
76404;BME280;65232;48.358;2.122;2022-12-18T00:41:19;101697.31;;;-3.35;81.65
76404;BME280;65232;48.358;2.122;2022-12-18T00:42:03;101705.22;;;-3.39;81.61
76404;BME280;65232;48.358;2.122;2022-12-18T00:42:47;101707.91;;;-3.44;81.73
76404;BME280;65232;48.358;2.122;2022-12-18T00:43:22;101700.22;;;-3.59;81.94
76404;BME280;65232;48.358;2.122;2022-12-18T00:43:48;101708.97;;;-3.66;82.13
76404;BME280;65232;48.358;2.122;2022-12-18T00:44:15;101708.09;;;-3.62;82.11
76404;BME280;65232;48.358;2.122;2022-12-18T00:44:40;101705.47;;;-3.62;82.06
76404;BME280;65232;48.358;2.122;2022-12-18T00:45:06;101709.09;;;-3.75;82.43
76404;BME280;65232;48.358;2.122;2022-12-18T00:45:32;101711.72;;;-3.80;82.66
76404;BME280;65232;48.358;2.122;2022-12-18T00:45:57;101704.81;;;-3.85;82.55
76404;BME280;65232;48.358;2.122;2022-12-18T00:46:23;101705.75;;;-3.91;83.10
76404;BME280;65232;48.358;2.122;2022-12-18T00:46:48;101711.75;;;-3.83;82.94
76404;BME280;65232;48.358;2.122;2022-12-18T00:47:14;101703.88;;;-3.80;83.20
76404;BME280;65232;48.358;2.122;2022-12-18T00:47:39;101705.63;;;-3.79;82.85
76404;BME280;65232;48.358;2.122;2022-12-18T00:48:05;101703.91;;;-3.83;83.06
76404;BME280;65232;48.358;2.122;2022-12-18T00:48:32;101708.25;;;-3.79;82.86
76404;BME280;65232;48.358;2.122;2022-12-18T00:48:58;101709.03;;;-3.71;83.03
76404;BME280;65232;48.358;2.122;2022-12-18T00:49:24;101709.09;;;-3.75;82.72
76404;BME280;65232;48.358;2.122;2022-12-18T00:49:50;101697.75;;;-3.73;82.74
76404;BME280;65232;48.358;2.122;2022-12-18T00:50:15;101703.00;;;-3.76;82.79
76404;BME280;65232;48.358;2.122;2022-12-18T00:50:41;101705.63;;;-3.77;82.50
76404;BME280;65232;48.358;2.122;2022-12-18T00:51:06;101699.50;;;-3.76;82.59
76404;BME280;65232;48.358;2.122;2022-12-18T00:51:34;101701.16;;;-3.68;82.36
76404;BME280;65232;48.358;2.122;2022-12-18T00:51:59;101697.66;;;-3.68;82.33
76404;BME280;65232;48.358;2.122;2022-12-18T00:52:24;101704.63;;;-3.66;82.31
76404;BME280;65232;48.358;2.122;2022-12-18T00:52:50;101695.84;;;-3.60;82.19
76404;BME280;65232;48.358;2.122;2022-12-18T00:53:16;101703.72;;;-3.60;82.30
76404;BME280;65232;48.358;2.122;2022-12-18T00:53:42;101698.44;;;-3.57;82.21
76404;BME280;65232;48.358;2.122;2022-12-18T00:54:07;101697.50;;;-3.53;82.04
76404;BME280;65232;48.358;2.122;2022-12-18T00:54:33;101692.28;;;-3.53;81.68
76404;BME280;65232;48.358;2.122;2022-12-18T00:54:59;101694.97;;;-3.59;81.63
76404;BME280;65232;48.358;2.122;2022-12-18T00:55:24;101702.78;;;-3.56;81.81
76404;BME280;65232;48.358;2.122;2022-12-18T00:55:50;101701.06;;;-3.57;81.65
76404;BME280;65232;48.358;2.122;2022-12-18T00:56:15;101701.94;;;-3.58;81.52
76404;BME280;65232;48.358;2.122;2022-12-18T00:56:41;101708.94;;;-3.59;81.84
76404;BME280;65232;48.358;2.122;2022-12-18T00:57:06;101699.31;;;-3.57;81.84
76404;BME280;65232;48.358;2.122;2022-12-18T00:57:32;101701.06;;;-3.57;81.79
76404;BME280;65232;48.358;2.122;2022-12-18T00:57:57;101708.94;;;-3.60;81.65
76404;BME280;65232;48.358;2.122;2022-12-18T00:58:23;101698.47;;;-3.60;81.51
76404;BME280;65232;48.358;2.122;2022-12-18T00:58:49;101704.56;;;-3.58;81.64
76404;BME280;65232;48.358;2.122;2022-12-18T00:59:15;101703.69;;;-3.59;81.58
76404;BME280;65232;48.358;2.122;2022-12-18T00:59:41;101711.47;;;-3.56;81.36
76404;BME280;65232;48.358;2.122;2022-12-18T01:00:09;101706.25;;;-3.54;81.27
76404;BME280;65232;48.358;2.122;2022-12-18T01:00:35;101708.81;;;-3.49;81.13
76404;BME280;65232;48.358;2.122;2022-12-18T01:01:04;101709.63;;;-3.43;81.19
76404;BME280;65232;48.358;2.122;2022-12-18T01:01:32;101710.56;;;-3.48;80.92
76404;BME280;65232;48.358;2.122;2022-12-18T01:01:57;101707.81;;;-3.38;80.83
76404;BME280;65232;48.358;2.122;2022-12-18T01:02:23;101713.13;;;-3.42;80.75
76404;BME280;65232;48.358;2.122;2022-12-18T01:02:48;101706.13;;;-3.42;80.55
76404;BME280;65232;48.358;2.122;2022-12-18T01:03:14;101706.22;;;-3.52;80.90
76404;BME280;65232;48.358;2.122;2022-12-18T01:03:42;101714.19;;;-3.65;81.02
76404;BME280;65232;48.358;2.122;2022-12-18T01:04:08;101708.06;;;-3.61;81.04
76404;BME280;65232;48.358;2.122;2022-12-18T01:04:34;101716.78;;;-3.62;81.29
76404;BME280;65232;48.358;2.122;2022-12-18T01:04:59;101705.44;;;-3.58;81.02
76404;BME280;65232;48.358;2.122;2022-12-18T01:05:25;101711.47;;;-3.54;80.88
76404;BME280;65232;48.358;2.122;2022-12-18T01:05:51;101711.44;;;-3.49;80.88
76404;BME280;65232;48.358;2.122;2022-12-18T01:06:17;101711.47;;;-3.52;80.81
76404;BME280;65232;48.358;2.122;2022-12-18T01:06:43;101712.34;;;-3.55;80.90
76404;BME280;65232;48.358;2.122;2022-12-18T01:07:09;101714.16;;;-3.59;81.13
76404;BME280;65232;48.358;2.122;2022-12-18T01:07:34;101711.44;;;-3.49;81.11
76404;BME280;65232;48.358;2.122;2022-12-18T01:08:01;101717.50;;;-3.46;80.89
76404;BME280;65232;48.358;2.122;2022-12-18T01:08:27;101721.00;;;-3.48;80.89
76404;BME280;65232;48.358;2.122;2022-12-18T01:08:52;101709.69;;;-3.49;80.57
76404;BME280;65232;48.358;2.122;2022-12-18T01:09:18;101714.97;;;-3.55;80.54
76404;BME280;65232;48.358;2.122;2022-12-18T01:09:43;101714.91;;;-3.49;80.48
76404;BME280;65232;48.358;2.122;2022-12-18T01:10:10;101708.69;;;-3.39;80.30
76404;BME280;65232;48.358;2.122;2022-12-18T01:10:40;101722.72;;;-3.43;80.30
76404;BME280;65232;48.358;2.122;2022-12-18T01:11:11;101714.88;;;-3.43;80.10
76404;BME280;65232;48.358;2.122;2022-12-18T01:11:38;101715.75;;;-3.45;79.93
76404;BME280;65232;48.358;2.122;2022-12-18T01:12:03;101714.03;;;-3.48;80.45
76404;BME280;65232;48.358;2.122;2022-12-18T01:12:29;101715.78;;;-3.48;80.31
76404;BME280;65232;48.358;2.122;2022-12-18T01:12:55;101718.34;;;-3.42;80.40
76404;BME280;65232;48.358;2.122;2022-12-18T01:13:20;101719.38;;;-3.57;80.46
76404;BME280;65232;48.358;2.122;2022-12-18T01:13:49;101716.94;;;-3.75;80.96
76404;BME280;65232;48.358;2.122;2022-12-18T01:14:15;101718.59;;;-3.68;81.29
76404;BME280;65232;48.358;2.122;2022-12-18T01:14:40;101722.06;;;-3.68;81.21
76404;BME280;65232;48.358;2.122;2022-12-18T01:15:06;101715.97;;;-3.67;81.15
76404;BME280;65232;48.358;2.122;2022-12-18T01:15:32;101722.09;;;-3.71;81.08
76404;BME280;65232;48.358;2.122;2022-12-18T01:15:57;101722.94;;;-3.67;81.11
76404;BME280;65232;48.358;2.122;2022-12-18T01:16:23;101722.88;;;-3.60;80.94
76404;BME280;65232;48.358;2.122;2022-12-18T01:16:48;101724.63;;;-3.62;81.07
76404;BME280;65232;48.358;2.122;2022-12-18T01:17:14;101722.81;;;-3.53;81.03
76404;BME280;65232;48.358;2.122;2022-12-18T01:17:39;101725.38;;;-3.50;80.90
76404;BME280;65232;48.358;2.122;2022-12-18T01:18:06;101724.50;;;-3.49;80.65
76404;BME280;65232;48.358;2.122;2022-12-18T01:18:31;101725.34;;;-3.43;80.55
76404;BME280;65232;48.358;2.122;2022-12-18T01:18:57;101720.09;;;-3.44;80.16
76404;BME280;65232;48.358;2.122;2022-12-18T01:19:25;101721.78;;;-3.40;80.13
76404;BME280;65232;48.358;2.122;2022-12-18T01:19:50;101723.59;;;-3.44;79.86
76404;BME280;65232;48.358;2.122;2022-12-18T01:20:16;101722.72;;;-3.44;79.98
76404;BME280;65232;48.358;2.122;2022-12-18T01:20:41;101725.34;;;-3.46;79.91
76404;BME280;65232;48.358;2.122;2022-12-18T01:21:13;101721.00;;;-3.47;79.80
76404;BME280;65232;48.358;2.122;2022-12-18T01:21:39;101714.09;;;-3.54;80.08
76404;BME280;65232;48.358;2.122;2022-12-18T01:22:04;101722.03;;;-3.62;80.44
76404;BME280;65232;48.358;2.122;2022-12-18T01:22:30;101726.38;;;-3.62;80.24
76404;BME280;65232;48.358;2.122;2022-12-18T01:22:59;101722.06;;;-3.65;80.43
76404;BME280;65232;48.358;2.122;2022-12-18T01:23:26;101717.78;;;-3.73;80.79
76404;BME280;65232;48.358;2.122;2022-12-18T01:23:53;101723.75;;;-3.61;80.78
76404;BME280;65232;48.358;2.122;2022-12-18T01:24:19;101720.25;;;-3.57;80.53
76404;BME280;65232;48.358;2.122;2022-12-18T01:24:45;101721.06;;;-3.53;80.18
76404;BME280;65232;48.358;2.122;2022-12-18T01:25:10;101714.91;;;-3.49;80.34
76404;BME280;65232;48.358;2.122;2022-12-18T01:25:36;101717.53;;;-3.49;80.20
76404;BME280;65232;48.358;2.122;2022-12-18T01:26:10;101720.19;;;-3.55;80.17
76404;BME280;65232;48.358;2.122;2022-12-18T01:26:36;101720.25;;;-3.58;80.07
76404;BME280;65232;48.358;2.122;2022-12-18T01:27:01;101718.50;;;-3.58;80.04
76404;BME280;65232;48.358;2.122;2022-12-18T01:27:27;101722.00;;;-3.59;80.10
76404;BME280;65232;48.358;2.122;2022-12-18T01:27:52;101719.38;;;-3.59;80.08
76404;BME280;65232;48.358;2.122;2022-12-18T01:28:18;101721.13;;;-3.58;80.18
76404;BME280;65232;48.358;2.122;2022-12-18T01:28:44;101721.16;;;-3.62;80.30
76404;BME280;65232;48.358;2.122;2022-12-18T01:29:09;101722.84;;;-3.57;80.43
76404;BME280;65232;48.358;2.122;2022-12-18T01:29:34;101717.69;;;-3.66;80.50
76404;BME280;65232;48.358;2.122;2022-12-18T01:30:01;101719.44;;;-3.66;80.50
76404;BME280;65232;48.358;2.122;2022-12-18T01:30:28;101720.31;;;-3.67;80.61
76404;BME280;65232;48.358;2.122;2022-12-18T01:30:53;101716.81;;;-3.65;80.55
76404;BME280;65232;48.358;2.122;2022-12-18T01:31:24;101725.53;;;-3.66;80.41
76404;BME280;65232;48.358;2.122;2022-12-18T01:31:50;101721.19;;;-3.68;80.34
76404;BME280;65232;48.358;2.122;2022-12-18T01:32:15;101719.47;;;-3.69;80.63
76404;BME280;65232;48.358;2.122;2022-12-18T01:32:40;101719.47;;;-3.68;80.33
76404;BME280;65232;48.358;2.122;2022-12-18T01:33:06;101720.31;;;-3.66;80.30
76404;BME280;65232;48.358;2.122;2022-12-18T01:33:31;101711.59;;;-3.65;80.44
76404;BME280;65232;48.358;2.122;2022-12-18T01:33:57;101715.06;;;-3.63;80.40
76404;BME280;65232;48.358;2.122;2022-12-18T01:34:26;101722.88;;;-3.60;80.22
76404;BME280;65232;48.358;2.122;2022-12-18T01:34:51;101713.22;;;-3.56;80.38
76404;BME280;65232;48.358;2.122;2022-12-18T01:35:16;101715.78;;;-3.50;80.08
76404;BME280;65232;48.358;2.122;2022-12-18T01:35:42;101715.72;;;-3.42;79.66
76404;BME280;65232;48.358;2.122;2022-12-18T01:36:23;101718.41;;;-3.48;79.63
76404;BME280;65232;48.358;2.122;2022-12-18T01:36:50;101707.91;;;-3.45;79.72
76404;BME280;65232;48.358;2.122;2022-12-18T01:37:18;101711.41;;;-3.48;79.64
76404;BME280;65232;48.358;2.122;2022-12-18T01:37:44;101715.81;;;-3.51;79.69
76404;BME280;65232;48.358;2.122;2022-12-18T01:38:09;101715.81;;;-3.51;79.72
76404;BME280;65232;48.358;2.122;2022-12-18T01:38:35;101719.31;;;-3.54;79.51
76404;BME280;65232;48.358;2.122;2022-12-18T01:39:04;101721.13;;;-3.59;79.74
76404;BME280;65232;48.358;2.122;2022-12-18T01:39:29;101710.53;;;-3.45;79.92
76404;BME280;65232;48.358;2.122;2022-12-18T01:39:56;101715.91;;;-3.59;80.10
76404;BME280;65232;48.358;2.122;2022-12-18T01:40:21;101714.94;;;-3.53;79.79
76404;BME280;65232;48.358;2.122;2022-12-18T01:40:57;101718.47;;;-3.56;79.83
76404;BME280;65232;48.358;2.122;2022-12-18T01:41:26;101715.06;;;-3.63;79.93
76404;BME280;65232;48.358;2.122;2022-12-18T01:41:52;101719.44;;;-3.65;80.06
76404;BME280;65232;48.358;2.122;2022-12-18T01:42:29;101715.97;;;-3.68;79.88
76404;BME280;65232;48.358;2.122;2022-12-18T01:42:55;101713.47;;;-3.77;80.21
76404;BME280;65232;48.358;2.122;2022-12-18T01:43:20;101717.72;;;-3.70;80.35
76404;BME280;65232;48.358;2.122;2022-12-18T01:43:47;101715.19;;;-3.76;80.52
76404;BME280;65232;48.358;2.122;2022-12-18T01:45:42;101717.56;;;-3.52;79.71
76404;BME280;65232;48.358;2.122;2022-12-18T01:46:07;101710.56;;;-3.48;79.71
76404;BME280;65232;48.358;2.122;2022-12-18T01:46:33;101707.03;;;-3.46;79.41
76404;BME280;65232;48.358;2.122;2022-12-18T01:46:58;101706.22;;;-3.51;79.25
76404;BME280;65232;48.358;2.122;2022-12-18T01:47:43;101709.69;;;-3.50;79.25
76404;BME280;65232;48.358;2.122;2022-12-18T01:48:10;101710.66;;;-3.59;79.37
76404;BME280;65232;48.358;2.122;2022-12-18T01:48:36;101712.56;;;-3.75;79.58
76404;BME280;65232;48.358;2.122;2022-12-18T01:49:03;101716.06;;;-3.74;79.78
76404;BME280;65232;48.358;2.122;2022-12-18T01:49:28;101716.81;;;-3.63;79.62
76404;BME280;65232;48.358;2.122;2022-12-18T01:49:55;101717.59;;;-3.55;79.45
76404;BME280;65232;48.358;2.122;2022-12-18T01:50:47;101722.94;;;-3.66;79.76
76404;BME280;65232;48.358;2.122;2022-12-18T01:51:15;101716.91;;;-3.72;79.52
76404;BME280;65232;48.358;2.122;2022-12-18T01:51:41;101727.53;;;-3.91;80.16
76404;BME280;65232;48.358;2.122;2022-12-18T01:52:06;101719.69;;;-3.91;80.68
76404;BME280;65232;48.358;2.122;2022-12-18T01:52:33;101719.75;;;-4.00;80.58
76404;BME280;65232;48.358;2.122;2022-12-18T01:53:12;101717.94;;;-3.88;81.02
76404;BME280;65232;48.358;2.122;2022-12-18T01:53:40;101719.66;;;-3.89;80.83
76404;BME280;65232;48.358;2.122;2022-12-18T01:54:07;101715.31;;;-3.90;80.91
76404;BME280;65232;48.358;2.122;2022-12-18T01:54:32;101722.31;;;-3.92;81.02
76404;BME280;65232;48.358;2.122;2022-12-18T01:54:59;101718.03;;;-4.01;81.34
76404;BME280;65232;48.358;2.122;2022-12-18T01:55:28;101720.56;;;-3.92;81.32
76404;BME280;65232;48.358;2.122;2022-12-18T01:55:56;101714.38;;;-3.84;81.25
76404;BME280;65232;48.358;2.122;2022-12-18T01:56:22;101710.84;;;-3.77;81.09
76404;BME280;65232;48.358;2.122;2022-12-18T01:56:48;101711.69;;;-3.75;80.75
76404;BME280;65232;48.358;2.122;2022-12-18T01:57:14;101710.00;;;-3.79;81.13
76404;BME280;65232;48.358;2.122;2022-12-18T01:57:40;101710.81;;;-3.71;80.88
76404;BME280;65232;48.358;2.122;2022-12-18T01:58:06;101706.28;;;-3.57;80.68
76404;BME280;65232;48.358;2.122;2022-12-18T01:59:12;101715.84;;;-3.56;80.21
76404;BME280;65232;48.358;2.122;2022-12-18T01:59:41;101712.41;;;-3.58;80.13
76404;BME280;65232;48.358;2.122;2022-12-18T02:00:14;101710.69;;;-3.61;80.22
76404;BME280;65232;48.358;2.122;2022-12-18T02:00:40;101706.50;;;-3.78;80.71
76404;BME280;65232;48.358;2.122;2022-12-18T02:01:06;101709.06;;;-3.72;80.57
76404;BME280;65232;48.358;2.122;2022-12-18T02:01:32;101711.69;;;-3.72;80.64
76404;BME280;65232;48.358;2.122;2022-12-18T02:02:01;101706.38;;;-3.68;80.79
76404;BME280;65232;48.358;2.122;2022-12-18T02:02:29;101709.88;;;-3.67;80.81
76404;BME280;65232;48.358;2.122;2022-12-18T02:02:55;101709.88;;;-3.69;80.65
76404;BME280;65232;48.358;2.122;2022-12-18T02:03:21;101709.88;;;-3.67;80.66
76404;BME280;65232;48.358;2.122;2022-12-18T02:03:46;101710.75;;;-3.68;80.77
76404;BME280;65232;48.358;2.122;2022-12-18T02:04:23;101705.50;;;-3.65;80.53
76404;BME280;65232;48.358;2.122;2022-12-18T02:04:49;101714.22;;;-3.68;80.74
76404;BME280;65232;48.358;2.122;2022-12-18T02:06:46;101705.44;;;-3.58;80.65
76404;BME280;65232;48.358;2.122;2022-12-18T02:09:12;101707.38;;;-3.79;80.55
76404;BME280;65232;48.358;2.122;2022-12-18T02:10:02;101703.00;;;-3.77;80.87
76404;BME280;65232;48.358;2.122;2022-12-18T02:10:44;101709.84;;;-3.64;80.61
76404;BME280;65232;48.358;2.122;2022-12-18T02:11:28;101715.03;;;-3.60;80.20
76404;BME280;65232;48.358;2.122;2022-12-18T02:12:16;101705.59;;;-3.76;80.30
76404;BME280;65232;48.358;2.122;2022-12-18T02:13:41;101709.94;;;-3.73;80.47
76404;BME280;65232;48.358;2.122;2022-12-18T02:14:34;101710.84;;;-3.79;80.78
76404;BME280;65232;48.358;2.122;2022-12-18T02:15:13;101713.34;;;-3.68;80.42
76404;BME280;65232;48.358;2.122;2022-12-18T02:15:54;101709.00;;;-3.69;80.23
76404;BME280;65232;48.358;2.122;2022-12-18T02:16:32;101710.75;;;-3.70;80.09
76404;BME280;65232;48.358;2.122;2022-12-18T02:17:01;101718.53;;;-3.62;80.32
76404;BME280;65232;48.358;2.122;2022-12-18T02:18:12;101709.78;;;-3.58;79.83
76404;BME280;65232;48.358;2.122;2022-12-18T02:18:45;101713.28;;;-3.58;79.89
76404;BME280;65232;48.358;2.122;2022-12-18T02:19:37;101709.81;;;-3.60;79.95
76404;BME280;65232;48.358;2.122;2022-12-18T02:20:28;101703.59;;;-3.51;79.76
76404;BME280;65232;48.358;2.122;2022-12-18T02:21:15;101705.34;;;-3.51;79.72
76404;BME280;65232;48.358;2.122;2022-12-18T02:22:24;101703.59;;;-3.49;79.36
76404;BME280;65232;48.358;2.122;2022-12-18T02:23:04;101704.41;;;-3.43;79.16
76404;BME280;65232;48.358;2.122;2022-12-18T02:25:35;101700.16;;;-3.56;79.26
76404;BME280;65232;48.358;2.122;2022-12-18T02:26:20;101701.31;;;-3.83;79.59
76404;BME280;65232;48.358;2.122;2022-12-18T02:26:53;101703.13;;;-3.93;80.01
76404;BME280;65232;48.358;2.122;2022-12-18T02:27:22;101702.38;;;-4.04;80.21
76404;BME280;65232;48.358;2.122;2022-12-18T02:27:49;101699.75;;;-4.02;80.53
76404;BME280;65232;48.358;2.122;2022-12-18T02:28:16;101701.50;;;-4.01;80.31
76404;BME280;65232;48.358;2.122;2022-12-18T02:28:51;101704.03;;;-3.97;80.64
76404;BME280;65232;48.358;2.122;2022-12-18T02:29:46;101703.13;;;-3.89;80.39
76404;BME280;65232;48.358;2.122;2022-12-18T02:30:16;101693.44;;;-3.81;80.30
76404;BME280;65232;48.358;2.122;2022-12-18T02:30:43;101695.09;;;-3.71;79.79
76404;BME280;65232;48.358;2.122;2022-12-18T02:31:13;101694.19;;;-3.67;79.50
76404;BME280;65232;48.358;2.122;2022-12-18T02:31:45;101690.66;;;-3.65;79.45
76404;BME280;65232;48.358;2.122;2022-12-18T02:32:18;101685.44;;;-3.65;79.09
76404;BME280;65232;48.358;2.122;2022-12-18T02:32:49;101690.72;;;-3.71;79.15
76404;BME280;65232;48.358;2.122;2022-12-18T02:33:16;101687.22;;;-3.70;79.05
76404;BME280;65232;48.358;2.122;2022-12-18T02:33:44;101686.41;;;-3.75;79.33
76404;BME280;65232;48.358;2.122;2022-12-18T02:34:12;101682.03;;;-3.71;79.45
76404;BME280;65232;48.358;2.122;2022-12-18T02:34:40;101684.59;;;-3.67;79.46
76404;BME280;65232;48.358;2.122;2022-12-18T02:35:15;101681.09;;;-3.66;79.22
76404;BME280;65232;48.358;2.122;2022-12-18T02:35:44;101684.53;;;-3.61;79.12
76404;BME280;65232;48.358;2.122;2022-12-18T02:36:11;101679.28;;;-3.59;79.07
76404;BME280;65232;48.358;2.122;2022-12-18T02:36:40;101682.78;;;-3.59;78.97